Estación de Los Colihues
Ultimos registro cada 15 minutos 69
| N° | Estación | Fecha / Hora | Temperatura | Humedad | Lluvia | Velocidad | Dirección | Radiación | Presion |
| 69 | Los Colihues | 01-09-2026 17:00 | 18,5 | 63,4 | 0 | 0 | 233 | 221,9 | 1009,4 |
| 68 | Los Colihues | 01-09-2026 16:45 | 18,3 | 63,5 | 0 | 0 | 234 | 139,4 | 1009,7 |
| 67 | Los Colihues | 01-09-2026 16:30 | 18,3 | 58,7 | 0 | 0 | 239 | 150,6 | 1009,6 |
| 66 | Los Colihues | 01-09-2026 16:15 | 18,4 | 59,4 | 0 | 0 | 246 | 188,1 | 1009,5 |
| 65 | Los Colihues | 01-09-2026 16:00 | 18,5 | 62,9 | 0 | 0,5 | 256 | 204,4 | 1009,4 |
| 64 | Los Colihues | 01-09-2026 15:45 | 18,6 | 62,7 | 0 | 0,5 | 258 | 200,6 | 1009,3 |
| 63 | Los Colihues | 01-09-2026 15:30 | 18,9 | 59,5 | 0 | 0,5 | 272 | 289,4 | 1009,3 |
| 62 | Los Colihues | 01-09-2026 15:15 | 19,7 | 56,9 | 0 | 0 | 256 | 320,6 | 1009,3 |
| 61 | Los Colihues | 01-09-2026 15:00 | 19 | 58 | 0 | 0,5 | 270 | 353,1 | 1009,2 |
| 60 | Los Colihues | 01-09-2026 14:45 | 19,3 | 56,4 | 0 | 0 | 278 | 298,1 | 1009,5 |
| 59 | Los Colihues | 01-09-2026 14:30 | 18,7 | 60,7 | 0 | 1 | 274 | 380,6 | 1009,8 |
| 58 | Los Colihues | 01-09-2026 14:15 | 18,8 | 61,2 | 0 | 1 | 309 | 431,9 | 1010,2 |
| 57 | Los Colihues | 01-09-2026 14:00 | 18,2 | 57 | 0 | 0,5 | 324 | 484,4 | 1010,3 |
| 56 | Los Colihues | 01-09-2026 13:45 | 18,5 | 57,4 | 0 | 0,5 | 229 | 431,9 | 1010,3 |
| 55 | Los Colihues | 01-09-2026 13:30 | 18,7 | 58,7 | 0 | 0,5 | 229 | 829,4 | 1009,9 |
| 54 | Los Colihues | 01-09-2026 13:15 | 18 | 59,7 | 0 | 0 | 240 | 785,6 | 1009,9 |
| 53 | Los Colihues | 01-09-2026 13:00 | 18 | 62 | 0 | 0,5 | 204 | 485,6 | 1010,4 |
| 52 | Los Colihues | 01-09-2026 12:45 | 17 | 64,6 | 0 | 0,5 | 187 | 730,6 | 1010,3 |
| 51 | Los Colihues | 01-09-2026 12:30 | 16,4 | 66,6 | 0 | 1 | 185 | 615,6 | 1010,9 |
| 50 | Los Colihues | 01-09-2026 12:15 | 16,4 | 70,9 | 0 | 0,5 | 197 | 704,4 | 1011,3 |
| 49 | Los Colihues | 01-09-2026 12:00 | 15,6 | 78,4 | 0 | 0,5 | 227 | 554,4 | 1011,9 |
| 48 | Los Colihues | 01-09-2026 11:45 | 14,9 | 82,8 | 0 | 0,5 | 205 | 633,1 | 1011,8 |
| 47 | Los Colihues | 01-09-2026 11:30 | 14,3 | 85,1 | 0 | 0,5 | 234 | 610,6 | 1012 |
| 46 | Los Colihues | 01-09-2026 11:15 | 14 | 87,4 | 0 | 0 | 209 | 593,1 | 1011,7 |
| 45 | Los Colihues | 01-09-2026 11:00 | 12,1 | 91,2 | 0 | 0 | 194 | 589,4 | 1012 |
| 44 | Los Colihues | 01-09-2026 10:45 | 11,6 | 95,7 | 0 | 0 | 201 | 711,9 | 1012,3 |
| 43 | Los Colihues | 01-09-2026 10:30 | 10,4 | 100 | 0 | 0 | 199 | 250,6 | 1013,3 |
| 42 | Los Colihues | 01-09-2026 10:15 | 10,2 | 100 | 0 | 0 | 247 | 421,9 | 1013,2 |
| 41 | Los Colihues | 01-09-2026 10:00 | 9,1 | 100 | 0 | 0 | 247 | 239,4 | 1013,7 |
| 40 | Los Colihues | 01-09-2026 09:45 | 8,9 | 100 | 0 | 0 | 225 | 241,9 | 1013,9 |
| 39 | Los Colihues | 01-09-2026 09:30 | 8,8 | 100 | 0 | 0 | 258 | 156,9 | 1014 |
| 38 | Los Colihues | 01-09-2026 09:15 | 8,4 | 100 | 0 | 0 | 258 | 229,4 | 1013,4 |
| 37 | Los Colihues | 01-09-2026 09:00 | 8,1 | 100 | 0 | 0 | 258 | 125,6 | 1013,9 |
| 36 | Los Colihues | 01-09-2026 08:45 | 7,6 | 100 | 0 | 0 | 258 | 78,1 | 1014 |
| 35 | Los Colihues | 01-09-2026 08:30 | 7,3 | 100 | 0 | 0 | 258 | 61,9 | 1013,9 |
| 34 | Los Colihues | 01-09-2026 08:15 | 6,8 | 100 | 0 | 0 | 258 | 69,4 | 1013,7 |
| 33 | Los Colihues | 01-09-2026 08:00 | 6,3 | 100 | 0 | 0 | 258 | 70,6 | 1013,6 |
| 32 | Los Colihues | 01-09-2026 07:45 | 5,8 | 100 | 0 | 0 | 258 | 30,6 | 1013,5 |
| 31 | Los Colihues | 01-09-2026 07:30 | 5,5 | 100 | 0 | 0 | 258 | 13,1 | 1013,3 |
| 30 | Los Colihues | 01-09-2026 07:15 | 5 | 100 | 0 | 0 | 258 | 3,1 | 1013,4 |
| 29 | Los Colihues | 01-09-2026 07:00 | 4,9 | 100 | 0 | 0 | 258 | 0,6 | 1013,4 |
| 28 | Los Colihues | 01-09-2026 06:45 | 5,2 | 100 | 0 | 0 | 258 | 0,6 | 1013,5 |
| 27 | Los Colihues | 01-09-2026 06:30 | 5,4 | 100 | 0 | 0 | 258 | 0,6 | 1013,5 |
| 26 | Los Colihues | 01-09-2026 06:15 | 5,1 | 100 | 0 | 0 | 258 | 0,6 | 1013,4 |
| 25 | Los Colihues | 01-09-2026 06:00 | 4,7 | 100 | 0 | 0 | 258 | 0,6 | 1013,4 |
| 24 | Los Colihues | 01-09-2026 05:45 | 4,7 | 100 | 0 | 0 | 258 | 0,6 | 1013,2 |
| 23 | Los Colihues | 01-09-2026 05:30 | 4,7 | 100 | 0 | 0 | 258 | 0,6 | 1013 |
| 22 | Los Colihues | 01-09-2026 05:15 | 5 | 100 | 0 | 0 | 258 | 0,6 | 1013,1 |
| 21 | Los Colihues | 01-09-2026 05:00 | 5,3 | 100 | 0 | 0 | 258 | 0,6 | 1013 |
| 20 | Los Colihues | 01-09-2026 04:45 | 5,4 | 100 | 0 | 0 | 258 | 0,6 | 1013 |
| 19 | Los Colihues | 01-09-2026 04:30 | 5,8 | 100 | 0 | 0 | 258 | 0,6 | 1013,2 |
| 18 | Los Colihues | 01-09-2026 04:15 | 6,3 | 100 | 0 | 0 | 258 | 0,6 | 1013,2 |
| 17 | Los Colihues | 01-09-2026 04:00 | 6,6 | 100 | 0 | 0 | 258 | 0,6 | 1013,2 |
| 16 | Los Colihues | 01-09-2026 03:45 | 6,7 | 100 | 0 | 0 | 258 | 0,6 | 1013,3 |
| 15 | Los Colihues | 01-09-2026 03:30 | 6,6 | 100 | 0 | 0 | 258 | 0,6 | 1013,1 |
| 14 | Los Colihues | 01-09-2026 03:15 | 7 | 100 | 0 | 0 | 258 | 0,6 | 1012,9 |
| 13 | Los Colihues | 01-09-2026 03:00 | 7,2 | 100 | 0 | 0 | 258 | 0,6 | 1013 |
| 12 | Los Colihues | 01-09-2026 02:45 | 7,6 | 100 | 0 | 0 | 258 | 0,6 | 1012,9 |
| 11 | Los Colihues | 01-09-2026 02:30 | 7,5 | 100 | 0 | 0 | 258 | 0,6 | 1013,4 |
| 10 | Los Colihues | 01-09-2026 02:15 | 7,8 | 100 | 0 | 0 | 258 | 0,6 | 1013,4 |
| 9 | Los Colihues | 01-09-2026 02:00 | 7,7 | 100 | 0 | 0 | 258 | 0,6 | 1013,8 |
| 8 | Los Colihues | 01-09-2026 01:45 | 7,9 | 100 | 0 | 0 | 258 | 0,6 | 1013,7 |
| 7 | Los Colihues | 01-09-2026 01:30 | 7,9 | 100 | 0 | 0 | 258 | 0,6 | 1013,7 |
| 6 | Los Colihues | 01-09-2026 01:15 | 7,8 | 100 | 0 | 0 | 258 | 0,6 | 1013,9 |
| 5 | Los Colihues | 01-09-2026 01:00 | 7,8 | 100 | 0 | 0 | 258 | 0,6 | 1014,1 |
| 4 | Los Colihues | 01-09-2026 00:45 | 7,8 | 100 | 0 | 0 | 258 | 0,6 | 1014 |
| 3 | Los Colihues | 01-09-2026 00:30 | 7,8 | 100 | 0 | 0 | 258 | 0,6 | 1013,9 |
| 2 | Los Colihues | 01-09-2026 00:15 | 8 | 100 | 0 | 0 | 258 | 0,6 | 1013,9 |
| 1 | Los Colihues | 01-09-2026 00:00 | 7,6 | 100 | 0 | 0 | 258 | 0,6 | 1014,3 |